Time;durP1;ratioP1;P1;durP2;ratioP2;P2;SDS_P1;SDS_P2;PMS_P1;PMS_P2;Temp;Humidity;BMP_temperature;BMP_pressure;BME280_temperature;BME280_humidity;BME280_pressure;Samples;Min_cycle;Max_cycle;Signal;HPM_P1;HPM_P2
2022/05/02 00:01:01;;;;;;;;;;;;;;;20.83;44.21;101663.50;5124581;27;2767;-60
2022/05/02 00:03:28;;;;;;;;;;;;;;;20.83;44.26;101654.88;5126523;27;2648;-59
2022/05/02 00:05:56;;;;;;;;;;;;;;;20.83;44.27;101657.75;5119367;27;2583;-60
2022/05/02 00:08:22;;;;;;;;;;;;;;;20.84;44.36;101653.47;5119797;27;2569;-60
2022/05/02 00:10:49;;;;;;;;;;;;;;;20.83;44.37;101652.00;5124165;27;3062;-59
2022/05/02 00:13:15;;;;;;;;;;;;;;;20.82;44.34;101656.28;5123738;27;2672;-60
2022/05/02 00:15:41;;;;;;;;;;;;;;;20.82;44.50;101650.50;5126320;27;2312;-59
2022/05/02 00:18:08;;;;;;;;;;;;;;;20.82;44.31;101650.50;5125407;27;2406;-60
2022/05/02 00:20:35;;;;;;;;;;;;;;;20.82;44.36;101649.75;5117071;27;2592;-59
2022/05/02 00:23:03;;;;;;;;;;;;;;;20.81;44.40;101646.13;5116497;27;2637;-60
2022/05/02 00:25:29;;;;;;;;;;;;;;;20.81;44.46;101645.38;5118700;27;2977;-59
2022/05/02 00:27:56;;;;;;;;;;;;;;;20.81;44.46;101643.25;5109684;27;2592;-59
2022/05/02 00:30:22;;;;;;;;;;;;;;;20.80;44.44;101636.00;5107019;27;2547;-59
2022/05/02 00:32:48;;;;;;;;;;;;;;;20.80;44.38;101635.22;5112429;27;2678;-60
2022/05/02 00:35:15;;;;;;;;;;;;;;;20.78;44.43;101635.88;5114862;27;2707;-60
2022/05/02 00:37:41;;;;;;;;;;;;;;;20.79;44.39;101636.63;5121747;27;2655;-59
2022/05/02 00:40:08;;;;;;;;;;;;;;;20.80;44.34;101635.22;5120121;27;2724;-59
2022/05/02 00:42:35;;;;;;;;;;;;;;;20.78;44.41;101635.88;5123035;27;2402;-59
2022/05/02 00:45:01;;;;;;;;;;;;;;;20.78;44.37;101638.75;5121090;27;2431;-59
2022/05/02 00:47:27;;;;;;;;;;;;;;;20.78;44.44;101633.00;5123879;27;2175;-59
2022/05/02 00:49:54;;;;;;;;;;;;;;;20.77;44.34;101636.50;5115275;27;2602;-59
2022/05/02 00:52:20;;;;;;;;;;;;;;;20.77;44.40;101645.88;5121683;27;2585;-60
2022/05/02 00:54:46;;;;;;;;;;;;;;;20.77;44.36;101642.25;5121892;27;2688;-60
2022/05/02 00:57:15;;;;;;;;;;;;;;;20.76;44.42;101635.03;5120917;27;2609;-59
2022/05/02 00:59:42;;;;;;;;;;;;;;;20.76;44.26;101623.50;5123006;27;2558;-59
2022/05/02 01:02:10;;;;;;;;;;;;;;;20.76;44.41;101635.03;5115028;27;2526;-60
2022/05/02 01:04:37;;;;;;;;;;;;;;;20.75;44.39;101637.13;5118536;27;2523;-59
2022/05/02 01:07:12;;;;;;;;;;;;;;;20.74;44.42;101632.78;5114822;27;2589;-59
2022/05/02 01:09:41;;;;;;;;;;;;;;;20.75;44.41;101636.38;5118546;27;2441;-59
2022/05/02 01:12:08;;;;;;;;;;;;;;;20.73;44.46;101631.28;5116392;27;2787;-60
2022/05/02 01:14:35;;;;;;;;;;;;;;;20.73;44.33;101636.28;5117301;27;2604;-59
2022/05/02 01:17:02;;;;;;;;;;;;;;;20.73;44.51;101631.28;5121163;27;2378;-60
2022/05/02 01:19:28;;;;;;;;;;;;;;;20.74;44.46;101632.03;5113869;27;2577;-59
2022/05/02 01:21:55;;;;;;;;;;;;;;;20.73;44.45;101637.03;5121575;27;2569;-60
2022/05/02 01:24:21;;;;;;;;;;;;;;;20.72;44.36;101629.78;5122293;27;2601;-59
2022/05/02 01:26:48;;;;;;;;;;;;;;;20.73;44.39;101637.03;5118344;27;2619;-59
2022/05/02 01:29:14;;;;;;;;;;;;;;;20.71;44.40;101639.78;5117643;27;2779;-59
2022/05/02 01:31:41;;;;;;;;;;;;;;;20.71;44.35;101628.28;5111839;27;2441;-59
2022/05/02 01:34:08;;;;;;;;;;;;;;;20.71;44.37;101628.28;5114774;27;2702;-60
2022/05/02 01:36:34;;;;;;;;;;;;;;;20.71;44.44;101622.53;5121418;27;2214;-59
2022/05/02 01:39:01;;;;;;;;;;;;;;;20.70;44.46;101627.50;5117617;27;2395;-59
2022/05/02 01:41:27;;;;;;;;;;;;;;;20.70;44.43;101621.75;5118363;27;2763;-59
2022/05/02 01:43:53;;;;;;;;;;;;;;;20.70;44.43;101618.13;5115073;27;2708;-59
2022/05/02 01:46:20;;;;;;;;;;;;;;;20.70;44.45;101621.03;5118787;27;2750;-59
2022/05/02 01:48:46;;;;;;;;;;;;;;;20.68;44.44;101618.78;5101006;27;2509;-60
2022/05/02 01:51:13;;;;;;;;;;;;;;;20.67;44.48;101610.78;5119475;27;2855;-59
2022/05/02 01:53:39;;;;;;;;;;;;;;;20.68;44.40;101620.91;5118503;27;1968;-59
2022/05/02 01:56:05;;;;;;;;;;;;;;;20.66;44.46;101610.03;5109897;27;2281;-59
2022/05/02 01:58:32;;;;;;;;;;;;;;;20.67;44.47;101607.91;5115350;28;2548;-59
2022/05/02 02:00:58;;;;;;;;;;;;;;;20.66;44.50;101601.41;5118978;27;2636;-59
2022/05/02 02:03:25;;;;;;;;;;;;;;;20.66;44.45;101600.63;5122877;28;2597;-59
2022/05/02 02:05:51;;;;;;;;;;;;;;;20.66;44.44;101600.63;5118861;28;2540;-60
2022/05/02 02:08:31;;;;;;;;;;;;;;;20.66;nan;101597.75;5099461;28;2220;-59
2022/05/02 02:11:05;;;;;;;;;;;;;;;20.65;44.52;101590.53;5121886;28;2110;-60
2022/05/02 02:13:31;;;;;;;;;;;;;;;20.65;44.56;101602.03;5126017;28;2171;-59
2022/05/02 02:15:57;;;;;;;;;;;;;;;20.65;44.44;101602.03;5120554;28;2425;-59
2022/05/02 02:18:24;;;;;;;;;;;;;;;20.64;44.58;101600.53;5119076;28;2434;-59
2022/05/02 02:20:53;;;;;;;;;;;;;;;20.64;44.48;101589.78;5120426;28;2655;-59
2022/05/02 02:23:19;;;;;;;;;;;;;;;20.63;44.60;101599.03;5121633;28;2821;-60
2022/05/02 02:25:46;;;;;;;;;;;;;;;20.62;44.61;101597.56;5122095;28;2534;-59
2022/05/02 02:28:13;;;;;;;;;;;;;;;20.62;44.56;101598.28;5122577;28;2643;-59
2022/05/02 02:30:40;;;;;;;;;;;;;;;20.62;44.49;101598.28;5118143;28;2597;-59
2022/05/02 02:33:05;;;;;;;;;;;;;;;20.62;44.56;101600.44;5117868;28;2748;-60
2022/05/02 02:35:31;;;;;;;;;;;;;;;20.61;44.53;101590.28;5118179;28;2669;-59
2022/05/02 02:37:58;;;;;;;;;;;;;;;20.61;44.59;101590.28;5121962;28;2394;-60
2022/05/02 02:40:24;;;;;;;;;;;;;;;20.61;44.55;101590.28;5119012;28;2501;-59
2022/05/02 02:42:50;;;;;;;;;;;;;;;20.61;44.57;101590.28;5114500;28;2728;-59
2022/05/02 02:45:17;;;;;;;;;;;;;;;20.61;44.56;101596.03;5123211;28;2152;-59
2022/05/02 02:47:43;;;;;;;;;;;;;;;20.60;44.60;101597.44;5124152;28;2418;-60
2022/05/02 02:50:10;;;;;;;;;;;;;;;20.61;44.66;101601.78;5118270;28;2618;-59
2022/05/02 02:52:36;;;;;;;;;;;;;;;20.60;44.45;101588.78;5117965;27;2716;-59
2022/05/02 02:55:03;;;;;;;;;;;;;;;20.61;44.47;101584.53;5127696;28;1534;-59
2022/05/02 02:57:29;;;;;;;;;;;;;;;20.63;44.46;101581.75;5122452;28;2651;-59
2022/05/02 03:00:01;;;;;;;;;;;;;;;20.63;44.32;101587.53;5121549;28;2458;-60
2022/05/02 03:02:28;;;;;;;;;;;;;;;20.64;44.26;101586.16;5114554;28;2730;-60
2022/05/02 03:07:47;;;;;;;;;;;;;;;20.65;44.29;101581.88;5081618;27;2570;-60
2022/05/02 03:10:13;;;;;;;;;;;;;;;20.65;44.30;101587.63;5123519;27;2556;-59
2022/05/02 03:12:40;;;;;;;;;;;;;;;20.65;44.27;101579.75;5126218;27;2842;-59
2022/05/02 03:15:06;;;;;;;;;;;;;;;20.67;44.28;101588.50;5124618;27;2584;-59
2022/05/02 03:17:32;;;;;;;;;;;;;;;20.66;44.32;101581.25;5120406;27;2556;-59
2022/05/02 03:19:59;;;;;;;;;;;;;;;20.67;44.36;101585.63;5123410;27;2588;-60
2022/05/02 03:22:25;;;;;;;;;;;;;;;20.67;44.19;101582.00;5121335;27;2541;-59
2022/05/02 03:24:52;;;;;;;;;;;;;;;20.67;44.28;101576.25;5121917;27;2759;-59
2022/05/02 03:27:18;;;;;;;;;;;;;;;20.69;44.23;101579.25;5127432;27;2170;-60
2022/05/02 03:29:44;;;;;;;;;;;;;;;20.67;44.23;101582.00;5120270;27;2585;-60
2022/05/02 03:32:11;;;;;;;;;;;;;;;20.69;44.41;101579.25;5120053;27;2682;-59
2022/05/02 03:34:37;;;;;;;;;;;;;;;20.70;44.47;101586.47;5124139;27;2636;-59
2022/05/02 03:37:04;;;;;;;;;;;;;;;20.69;44.60;101579.97;5120485;27;2475;-59
2022/05/02 03:39:30;;;;;;;;;;;;;;;20.69;44.54;101573.47;5126087;27;2687;-59
2022/05/02 03:41:56;;;;;;;;;;;;;;;20.70;44.60;101575.72;5117930;27;2664;-60
2022/05/02 03:44:23;;;;;;;;;;;;;;;20.71;44.68;101576.47;5122468;27;2574;-59
2022/05/02 03:46:49;;;;;;;;;;;;;;;20.71;44.63;101570.72;5126100;27;2421;-60
2022/05/02 03:49:15;;;;;;;;;;;;;;;20.72;44.68;101575.09;5123237;27;2450;-59
2022/05/02 03:51:42;;;;;;;;;;;;;;;20.73;44.60;101573.72;5121722;27;2500;-59
2022/05/02 03:54:08;;;;;;;;;;;;;;;20.72;44.59;101575.09;5126648;27;2478;-59
2022/05/02 03:56:35;;;;;;;;;;;;;;;20.73;44.65;101572.94;5121809;27;2622;-59
2022/05/02 03:59:01;;;;;;;;;;;;;;;20.72;44.75;101569.31;5127205;27;2692;-59
2022/05/02 04:01:28;;;;;;;;;;;;;;;20.73;44.73;101567.19;5121238;27;2273;-60
2022/05/02 04:03:54;;;;;;;;;;;;;;;20.73;44.75;101573.72;5120712;27;2277;-59
2022/05/02 04:06:21;;;;;;;;;;;;;;;20.75;44.63;101584.59;5118461;27;2596;-60
2022/05/02 04:08:47;;;;;;;;;;;;;;;20.74;44.78;101580.97;5124906;27;2753;-59
2022/05/02 04:11:13;;;;;;;;;;;;;;;20.74;44.80;101572.31;5123027;27;2362;-59
2022/05/02 04:13:40;;;;;;;;;;;;;;;20.75;44.79;101578.81;5117392;27;2576;-59
2022/05/02 04:16:06;;;;;;;;;;;;;;;20.75;44.80;101582.44;5120467;27;2211;-59
2022/05/02 04:18:32;;;;;;;;;;;;;;;20.75;44.85;101588.19;5122015;27;2280;-59
2022/05/02 04:20:59;;;;;;;;;;;;;;;20.75;44.63;101596.84;5121031;27;2584;-59
2022/05/02 04:23:25;;;;;;;;;;;;;;;20.77;45.03;101590.44;5116130;27;2674;-60
2022/05/02 04:25:51;;;;;;;;;;;;;;;20.76;44.91;101589.72;5122147;27;2183;-59
2022/05/02 04:28:18;;;;;;;;;;;;;;;20.76;44.80;101595.47;5121981;27;2160;-59
2022/05/02 04:30:44;;;;;;;;;;;;;;;20.76;44.88;101589.72;5118429;27;2609;-59
2022/05/02 04:33:12;;;;;;;;;;;;;;;20.76;44.83;101591.84;5114798;27;2813;-60
2022/05/02 04:35:38;;;;;;;;;;;;;;;20.76;44.81;101598.34;5116443;27;2640;-59
2022/05/02 04:38:05;;;;;;;;;;;;;;;20.69;45.52;101599.38;5110119;27;3269;-65
2022/05/02 04:40:31;;;;;;;;;;;;;;;20.76;45.62;101600.47;5120333;27;2676;-62
2022/05/02 04:42:57;;;;;;;;;;;;;;;20.75;45.20;101613.38;5120113;27;2585;-60
2022/05/02 04:45:24;;;;;;;;;;;;;;;20.28;39.27;101606.38;5125221;27;2541;-62
2022/05/02 04:47:50;;;;;;;;;;;;;;;20.25;39.26;101599.03;5121678;27;2805;-60
2022/05/02 04:50:20;;;;;;;;;;;;;;;20.41;40.03;101607.88;5119804;27;2691;-61
2022/05/02 04:52:46;;;;;;;;;;;;;;;20.55;42.09;101601.41;5120367;27;2611;-61
2022/05/02 04:55:13;;;;;;;;;;;;;;;20.64;42.67;101606.31;5122580;27;2427;-62
2022/05/02 04:57:39;;;;;;;;;;;;;;;20.77;43.02;101608.47;5121713;27;2438;-61
2022/05/02 05:00:07;;;;;;;;;;;;;;;20.82;43.59;101601.56;5112537;27;2742;-61
2022/05/02 05:02:33;;;;;;;;;;;;;;;20.83;43.70;101600.19;5118121;27;4080;-63
2022/05/02 05:05:00;;;;;;;;;;;;;;;20.86;43.93;101604.66;5111970;27;3400;-63
2022/05/02 05:07:26;;;;;;;;;;;;;;;20.91;45.09;101606.41;5112766;27;2740;-62
2022/05/02 05:09:53;;;;;;;;;;;;;;;20.96;44.84;101601.63;5120122;27;2709;-61
2022/05/02 05:12:19;;;;;;;;;;;;;;;21.01;45.08;101597.56;5114198;27;2973;-61
2022/05/02 05:17:46;;;;;;;;;;;;;;;21.08;45.07;101607.31;5101282;27;2535;-61
2022/05/02 05:20:15;;;;;;;;;;;;;;;21.10;45.32;101604.53;5099818;27;2772;-61
2022/05/02 05:22:57;;;;;;;;;;;;;;;21.12;45.31;101601.78;5115252;27;2768;-63
2022/05/02 05:25:36;;;;;;;;;;;;;;;21.13;45.44;101603.25;5093746;27;2810;-64
2022/05/02 05:28:21;;;;;;;;;;;;;;;21.13;45.72;101604.00;5107646;27;3515;-61
2022/05/02 05:30:47;;;;;;;;;;;;;;;21.14;45.66;101596.09;5106598;27;3006;-61
2022/05/02 05:33:22;;;;;;;;;;;;;;;21.19;46.02;101600.72;5118126;27;2736;-61
2022/05/02 05:35:48;;;;;;;;;;;;;;;21.19;45.87;101597.06;5112090;27;2936;-60
2022/05/02 05:38:26;;;;;;;;;;;;;;;21.28;45.17;101596.91;5114413;27;2371;-59
2022/05/02 05:40:57;;;;;;;;;;;;;;;21.19;45.54;101586.31;5108275;27;2746;-59
2022/05/02 05:43:34;;;;;;;;;;;;;;;21.20;45.38;101584.19;5092646;27;2768;-59
2022/05/02 05:46:13;;;;;;;;;;;;;;;21.20;45.38;101584.91;5094441;28;2713;-60
2022/05/02 05:48:58;;;;;;;;;;;;;;;21.19;45.63;101583.44;5090963;28;2873;-59
2022/05/02 05:51:31;;;;;;;;;;;;;;;21.18;45.88;101575.44;5113676;27;2444;-55
2022/05/02 05:54:05;;;;;;;;;;;;;;;21.17;46.30;101580.44;5114374;27;3397;-59
2022/05/02 05:56:39;;;;;;;;;;;;;;;21.14;45.81;101575.94;5117178;27;2753;-56
2022/05/02 05:59:07;;;;;;;;;;;;;;;21.10;45.27;101570.72;5111532;27;2622;-58
2022/05/02 06:01:49;;;;;;;;;;;;;;;20.98;45.42;101575.81;5118414;27;3378;-58
2022/05/02 06:04:16;;;;;;;;;;;;;;;21.02;45.14;101586.81;5094158;28;2633;-58
2022/05/02 06:06:43;;;;;;;;;;;;;;;21.03;44.97;101582.56;5105884;28;3149;-59
2022/05/02 06:09:09;;;;;;;;;;;;;;;21.07;44.72;101582.75;5112567;28;2690;-59
2022/05/02 06:11:35;;;;;;;;;;;;;;;21.14;44.75;101575.94;5110544;28;3480;-61
2022/05/02 06:14:02;;;;;;;;;;;;;;;21.21;44.50;101582.78;5115357;28;2751;-59
2022/05/02 06:19:15;;;;;;;;;;;;;;;21.26;44.11;101585.25;5099877;28;3049;-58
2022/05/02 06:21:42;;;;;;;;;;;;;;;21.29;43.66;101591.88;5118595;28;2540;-58
2022/05/02 06:24:09;;;;;;;;;;;;;;;21.31;43.30;101601.38;5117160;28;2344;-58
2022/05/02 06:26:37;;;;;;;;;;;;;;;21.31;43.62;101589.84;5115524;28;2811;-55
2022/05/02 06:29:03;;;;;;;;;;;;;;;21.31;43.08;101589.84;5116671;28;2646;-60
2022/05/02 06:31:31;;;;;;;;;;;;;;;21.32;42.86;101587.72;5115838;28;2726;-60
2022/05/02 06:33:57;;;;;;;;;;;;;;;21.34;42.67;101600.09;5115608;28;2785;-54
2022/05/02 06:36:35;;;;;;;;;;;;;;;21.41;42.66;101594.69;5116066;28;2756;-60
2022/05/02 06:39:05;;;;;;;;;;;;;;;21.44;42.39;101602.03;5116904;28;2752;-59
2022/05/02 06:41:36;;;;;;;;;;;;;;;21.40;42.30;101601.81;5120152;27;2844;-59
2022/05/02 06:44:07;;;;;;;;;;;;;;;21.36;42.05;101593.69;5100177;27;2670;-59
2022/05/02 06:46:34;;;;;;;;;;;;;;;21.42;42.63;101601.97;5120641;27;2707;-59
2022/05/02 06:49:03;;;;;;;;;;;;;;;21.39;42.19;101594.56;5119952;27;2615;-61
2022/05/02 06:51:31;;;;;;;;;;;;;;;21.31;42.04;101589.84;5121576;27;2673;-65
2022/05/02 06:54:07;;;;;;;;;;;;;;;21.18;37.58;101589.81;5109656;27;2702;-66
2022/05/02 06:56:41;;;;;;;;;;;;;;;21.04;36.31;101586.91;5100125;27;2688;-63
2022/05/02 06:59:13;;;;;;;;;;;;;;;20.81;35.49;101584.94;5119423;27;2870;-64
2022/05/02 07:01:43;;;;;;;;;;;;;;;20.94;36.37;101581.34;5103559;27;2058;-64
2022/05/02 07:04:15;;;;;;;;;;;;;;;21.06;37.13;101592.78;5120092;27;2327;-66
2022/05/02 07:06:44;;;;;;;;;;;;;;;21.08;36.95;101585.00;5113703;27;2849;-56
2022/05/02 07:09:13;;;;;;;;;;;;;;;21.06;37.71;101587.78;5105704;27;2876;-62
2022/05/02 07:11:39;;;;;;;;;;;;;;;21.11;38.06;101586.59;5111826;27;2740;-59
2022/05/02 07:14:10;;;;;;;;;;;;;;;21.05;36.49;101579.75;5118704;27;2693;-59
2022/05/02 07:16:38;;;;;;;;;;;;;;;20.98;36.29;101586.56;5102029;27;2680;-58
2022/05/02 07:19:07;;;;;;;;;;;;;;;20.95;35.56;101593.59;5103408;27;2804;-55
2022/05/02 07:21:43;;;;;;;;;;;;;;;20.94;35.51;101592.88;5117151;27;3302;-55
2022/05/02 07:24:21;;;;;;;;;;;;;;;20.86;35.32;101587.38;5114303;27;2901;-59
2022/05/02 07:26:53;;;;;;;;;;;;;;;20.82;35.28;101586.41;5116795;27;2828;-58
2022/05/02 07:29:20;;;;;;;;;;;;;;;20.71;35.29;101576.47;5112912;27;3366;-57
2022/05/02 07:31:46;;;;;;;;;;;;;;;20.70;35.20;101580.72;5099159;28;1617;-57
2022/05/02 07:34:15;;;;;;;;;;;;;;;20.63;35.03;101578.88;5098015;28;2581;-57
2022/05/02 07:36:52;;;;;;;;;;;;;;;20.46;34.55;101580.81;5100995;28;2407;-56
2022/05/02 07:39:27;;;;;;;;;;;;;;;20.42;34.69;101574.81;5095858;28;2744;-56
2022/05/02 07:41:54;;;;;;;;;;;;;;;20.43;34.22;101582.09;5095630;28;2689;-56
2022/05/02 07:44:20;;;;;;;;;;;;;;;20.36;34.59;101577.34;5096812;28;2725;-57
2022/05/02 07:46:47;;;;;;;;;;;;;;;20.38;34.65;101565.22;5098724;28;2502;-57
2022/05/02 07:49:14;;;;;;;;;;;;;;;20.32;34.54;101574.25;5095953;28;2801;-57
2022/05/02 07:51:42;;;;;;;;;;;;;;;20.25;35.23;101583.91;5100045;28;2738;-56
2022/05/02 07:54:13;;;;;;;;;;;;;;;20.26;35.01;101574.63;5092544;28;2698;-57
2022/05/02 07:56:39;;;;;;;;;;;;;;;20.25;35.03;101583.91;5099712;28;2781;-56
2022/05/02 07:59:05;;;;;;;;;;;;;;;20.24;35.28;101588.16;5093211;28;2845;-57
2022/05/02 08:01:32;;;;;;;;;;;;;;;20.21;35.50;101584.41;5102153;28;2338;-56
2022/05/02 08:03:58;;;;;;;;;;;;;;;20.17;35.63;101589.16;5104907;28;2177;-56
2022/05/02 08:06:35;;;;;;;;;;;;;;;20.22;35.82;101583.00;5093512;28;3185;-57
2022/05/02 08:09:03;;;;;;;;;;;;;;;20.26;36.36;101580.38;5092840;28;2702;-58
2022/05/02 08:11:29;;;;;;;;;;;;;;;20.34;36.61;101574.38;5099057;28;2615;-60
2022/05/02 08:14:00;;;;;;;;;;;;;;;20.38;36.71;101583.22;5088598;28;2748;-60
2022/05/02 08:16:27;;;;;;;;;;;;;;;20.41;37.17;101572.56;5095579;28;2776;-61
2022/05/02 08:19:03;;;;;;;;;;;;;;;20.44;37.23;101572.06;5100648;28;2781;-61
2022/05/02 08:21:35;;;;;;;;;;;;;;;20.47;37.37;101570.06;5086085;28;3451;-58
2022/05/02 08:27:17;;;;;;;;;;;;;;;20.59;37.96;101564.25;5094907;28;2670;-60
2022/05/02 08:29:55;;;;;;;;;;;;;;;20.59;38.09;101562.16;5100393;28;1889;-60
2022/05/02 08:32:22;;;;;;;;;;;;;;;20.62;38.33;101563.00;5105959;27;3222;-65
2022/05/02 08:34:56;;;;;;;;;;;;;;;20.68;38.38;101566.22;5117720;27;2592;-65
2022/05/02 08:37:30;;;;;;;;;;;;;;;20.66;38.61;101568.97;5099638;27;3300;-62
2022/05/02 08:40:07;;;;;;;;;;;;;;;20.69;38.96;101561.97;5118684;27;2669;-59
2022/05/02 08:42:54;;;;;;;;;;;;;;;20.72;38.85;101569.31;5113158;27;2808;-60
2022/05/02 08:45:59;;;;;;;;;;;;;;;20.73;38.85;101565.09;5114029;27;2803;-59
2022/05/02 08:48:44;;;;;;;;;;;;;;;20.75;39.34;101553.66;5119097;27;2323;-59
2022/05/02 08:51:29;;;;;;;;;;;;;;;20.80;39.50;101548.88;5114262;27;2720;-60
2022/05/02 08:54:03;;;;;;;;;;;;;;;20.79;39.08;101551.00;5116902;27;2720;-60
2022/05/02 08:56:37;;;;;;;;;;;;;;;20.82;39.05;101552.63;5113865;27;2653;-60
2022/05/02 08:59:27;;;;;;;;;;;;;;;20.86;39.36;101549.97;5096420;27;2780;-60
2022/05/02 09:02:29;;;;;;;;;;;;;;;20.86;39.12;101546.34;5102730;27;2847;-61
2022/05/02 09:04:55;;;;;;;;;;;;;;;20.89;39.43;101542.97;5120289;27;3030;-61
2022/05/02 09:07:42;;;;;;;;;;;;;;;20.96;39.75;101544.03;5115661;27;3030;-60
2022/05/02 09:10:10;;;;;;;;;;;;;;;20.98;39.55;101541.28;5095717;27;3154;-60
2022/05/02 09:12:55;;;;;;;;;;;;;;;21.03;39.17;101545.13;5120733;27;2744;-60
2022/05/02 09:15:33;;;;;;;;;;;;;;;21.08;38.95;101538.19;5118635;27;3007;-60
2022/05/02 09:18:12;;;;;;;;;;;;;;;21.08;39.34;101535.31;5114765;27;2730;-61
2022/05/02 09:20:57;;;;;;;;;;;;;;;21.11;39.48;101531.16;5110926;27;2688;-59
2022/05/02 09:23:29;;;;;;;;;;;;;;;21.14;39.09;101541.38;5112894;27;3450;-60
2022/05/02 09:26:15;;;;;;;;;;;;;;;21.16;38.69;101532.84;5114581;27;2859;-62
2022/05/02 09:28:41;;;;;;;;;;;;;;;21.16;38.78;101527.09;5089079;27;2669;-70
2022/05/02 09:31:18;;;;;;;;;;;;;;;21.15;38.99;101533.50;5111219;27;3313;-67
2022/05/02 09:34:03;;;;;;;;;;;;;;;21.17;39.06;101522.84;5115953;27;2448;-70
2022/05/02 09:36:38;;;;;;;;;;;;;;;21.15;38.91;101519.84;5113654;27;2595;-71
2022/05/02 09:39:15;;;;;;;;;;;;;;;21.13;38.87;101523.34;5098592;28;2740;-71
2022/05/02 09:42:00;;;;;;;;;;;;;;;21.15;39.32;101514.09;5114203;27;2980;-67
2022/05/02 09:50:20;;;;;;;;;;;;;;;21.19;38.56;101505.69;5120141;27;2753;-64
2022/05/02 09:52:47;;;;;;;;;;;;;;;21.21;38.83;101505.00;5118742;27;2654;-63
2022/05/02 09:58:08;;;;;;;;;;;;;;;21.23;38.32;101497.22;5113004;27;2700;-64
2022/05/02 10:01:10;;;;;;;;;;;;;;;21.23;38.99;101502.25;5097116;28;2710;-64
2022/05/02 10:03:38;;;;;;;;;;;;;;;21.26;38.61;101495.97;5112239;28;2669;-64
2022/05/02 10:06:04;;;;;;;;;;;;;;;21.25;39.17;101491.56;5117345;28;2808;-64
2022/05/02 10:08:38;;;;;;;;;;;;;;;21.27;38.81;101485.19;5114097;28;2776;-65
2022/05/02 10:11:06;;;;;;;;;;;;;;;21.30;38.97;101489.66;5117658;28;2575;-64
2022/05/02 10:13:37;;;;;;;;;;;;;;;21.30;38.97;101484.66;5120671;28;1486;-66
2022/05/02 10:16:05;;;;;;;;;;;;;;;21.31;38.98;101491.91;5103927;27;1717;-65
2022/05/02 10:18:39;;;;;;;;;;;;;;;21.30;39.00;101484.66;5102395;27;2757;-63
2022/05/02 10:21:24;;;;;;;;;;;;;;;21.32;39.31;101481.84;5103064;27;2366;-62
2022/05/02 10:23:53;;;;;;;;;;;;;;;21.34;38.92;101473.34;5123257;27;2790;-62
2022/05/02 10:26:32;;;;;;;;;;;;;;;21.34;38.96;101470.44;5122321;27;2261;-62
2022/05/02 10:29:11;;;;;;;;;;;;;;;21.36;39.15;101478.47;5099838;27;2753;-62
2022/05/02 10:31:38;;;;;;;;;;;;;;;21.37;38.98;101470.56;5123640;27;1577;-62
2022/05/02 10:34:04;;;;;;;;;;;;;;;21.36;39.48;101463.31;5114651;27;2922;-62
2022/05/02 10:36:35;;;;;;;;;;;;;;;21.46;38.42;101461.75;5121107;27;2670;-67
2022/05/02 10:39:05;;;;;;;;;;;;;;;21.44;38.36;101460.88;5116379;27;3042;-63
2022/05/02 10:41:31;;;;;;;;;;;;;;;21.38;38.01;101460.53;5100283;27;2858;-63
2022/05/02 10:44:01;;;;;;;;;;;;;;;21.34;37.51;101452.41;5122436;27;2728;-63
2022/05/02 10:46:28;;;;;;;;;;;;;;;21.31;37.15;101454.47;5120110;27;2769;-63
2022/05/02 10:49:00;;;;;;;;;;;;;;;21.32;37.41;101444.41;5117948;27;2780;-62
2022/05/02 10:51:32;;;;;;;;;;;;;;;21.33;37.52;101442.31;5117396;27;2705;-61
2022/05/02 10:54:02;;;;;;;;;;;;;;;21.29;36.87;101442.81;5113531;27;3511;-62
2022/05/02 10:56:44;;;;;;;;;;;;;;;21.33;36.75;101437.28;5114616;27;3052;-62
2022/05/02 10:59:14;;;;;;;;;;;;;;;21.36;36.40;101435.25;5115174;27;3014;-64
2022/05/02 11:01:47;;;;;;;;;;;;;;;21.31;36.60;101428.53;5121780;27;2362;-62
2022/05/02 11:04:22;;;;;;;;;;;;;;;21.33;36.64;101425.75;5103665;27;2676;-63
2022/05/02 11:06:59;;;;;;;;;;;;;;;21.30;36.70;101423.41;5104510;27;2691;-62
2022/05/02 11:09:35;;;;;;;;;;;;;;;21.32;37.00;101430.00;5101548;27;2793;-62
2022/05/02 11:12:03;;;;;;;;;;;;;;;21.30;37.10;101414.75;5100091;27;2728;-62
2022/05/02 11:14:43;;;;;;;;;;;;;;;21.33;37.26;101419.25;5100826;27;2926;-62
2022/05/02 11:17:26;;;;;;;;;;;;;;;21.34;36.82;101412.09;5123993;27;3307;-62
2022/05/02 11:22:53;;;;;;;;;;;;;;;21.24;36.70;101406.56;5105271;27;2553;-67
2022/05/02 11:25:20;;;;;;;;;;;;;;;21.20;37.38;101406.34;5105809;27;2634;-65
2022/05/02 11:28:05;;;;;;;;;;;;;;;21.24;36.88;101412.31;5117486;27;2701;-66
2022/05/02 11:30:37;;;;;;;;;;;;;;;21.25;37.19;101408.03;5119231;27;2678;-64
2022/05/02 11:33:23;;;;;;;;;;;;;;;21.25;37.05;101402.28;5117393;27;2655;-60
2022/05/02 11:35:51;;;;;;;;;;;;;;;21.12;36.65;101405.94;5112237;27;3472;-67
2022/05/02 11:38:19;;;;;;;;;;;;;;;20.77;36.06;101406.97;5119650;27;2812;-63
2022/05/02 11:40:46;;;;;;;;;;;;;;;21.04;36.67;101394.00;5115175;27;3122;-65
2022/05/02 11:43:19;;;;;;;;;;;;;;;21.15;36.55;101396.00;5119116;27;2725;-68
2022/05/02 11:45:47;;;;;;;;;;;;;;;21.17;37.00;101393.25;5121052;27;1967;-64
2022/05/02 11:48:15;;;;;;;;;;;;;;;21.16;36.68;101382.34;5098694;27;2836;-65
2022/05/02 11:50:44;;;;;;;;;;;;;;;21.16;36.85;101382.34;5114799;27;2701;-59
2022/05/02 11:53:10;;;;;;;;;;;;;;;21.15;36.18;101381.63;5119454;27;2697;-60
2022/05/02 11:55:37;;;;;;;;;;;;;;;21.15;36.32;101381.63;5120584;27;2744;-60
2022/05/02 11:58:07;;;;;;;;;;;;;;;21.17;36.35;101384.59;5097399;27;2734;-60
2022/05/02 12:00:35;;;;;;;;;;;;;;;21.15;36.71;101375.84;5112322;27;2901;-61
2022/05/02 12:03:14;;;;;;;;;;;;;;;21.15;36.17;101375.84;5121060;27;2298;-61
2022/05/02 12:05:48;;;;;;;;;;;;;;;21.15;36.17;101370.09;5116129;27;2697;-61
2022/05/02 12:08:29;;;;;;;;;;;;;;;21.15;36.16;101372.22;5101716;27;2646;-62
2022/05/02 12:11:05;;;;;;;;;;;;;;;21.15;36.00;101367.22;5108518;27;3464;-62
2022/05/02 12:13:32;;;;;;;;;;;;;;;21.18;36.11;101365.19;5120309;27;2753;-61
2022/05/02 12:16:09;;;;;;;;;;;;;;;21.22;36.18;101362.50;5116414;27;3433;-63
2022/05/02 12:18:39;;;;;;;;;;;;;;;21.21;36.43;101358.13;5116552;27;2886;-62
2022/05/02 12:21:05;;;;;;;;;;;;;;;21.21;36.57;101355.25;5118220;27;2713;-61
2022/05/02 12:23:34;;;;;;;;;;;;;;;21.20;36.59;101345.88;5118721;27;3207;-62
2022/05/02 12:26:02;;;;;;;;;;;;;;;21.20;36.46;101343.00;5119616;27;2370;-61
2022/05/02 12:28:39;;;;;;;;;;;;;;;21.26;36.68;101340.41;5111134;27;2775;-59
2022/05/02 12:31:06;;;;;;;;;;;;;;;21.25;36.85;101338.91;5121233;27;2513;-61
2022/05/02 12:33:32;;;;;;;;;;;;;;;21.29;36.86;101342.00;5117241;27;2665;-61
2022/05/02 12:35:59;;;;;;;;;;;;;;;21.28;36.81;101340.53;5120636;27;2385;-61
2022/05/02 12:38:26;;;;;;;;;;;;;;;21.30;36.93;101339.88;5110956;27;2824;-61
2022/05/02 12:40:52;;;;;;;;;;;;;;;21.32;37.16;101332.06;5115665;27;2718;-61
2022/05/02 12:43:26;;;;;;;;;;;;;;;21.30;36.86;101332.00;5112285;27;2713;-56
2022/05/02 12:45:52;;;;;;;;;;;;;;;21.32;36.83;101334.22;5109896;27;3402;-54
2022/05/02 12:48:39;;;;;;;;;;;;;;;21.33;37.26;101338.59;5126572;27;1546;-59
2022/05/02 12:51:06;;;;;;;;;;;;;;;21.33;36.98;101327.81;5111222;27;3948;-60
2022/05/02 12:56:17;;;;;;;;;;;;;;;21.37;37.16;101326.50;5119188;27;2693;-60
2022/05/02 13:01:30;;;;;;;;;;;;;;;21.50;37.12;101314.97;5111341;27;2716;-59
2022/05/02 13:04:02;;;;;;;;;;;;;;;21.44;37.19;101314.69;5103634;27;3394;-60
2022/05/02 13:06:32;;;;;;;;;;;;;;;21.40;37.33;101316.59;5112808;27;2730;-59
2022/05/02 13:09:09;;;;;;;;;;;;;;;21.41;37.43;101315.22;5094305;27;2565;-59
2022/05/02 13:11:35;;;;;;;;;;;;;;;21.38;37.50;101313.63;5117676;27;1569;-59
2022/05/02 13:14:01;;;;;;;;;;;;;;;21.39;37.66;101315.84;5112887;27;2668;-58
2022/05/02 13:16:32;;;;;;;;;;;;;;;21.40;37.66;101307.94;5096223;27;2580;-59
2022/05/02 13:19:00;;;;;;;;;;;;;;;21.39;37.73;101310.06;5119198;27;1521;-59
2022/05/02 13:21:26;;;;;;;;;;;;;;;21.40;37.73;101297.19;5115663;27;2813;-59
2022/05/02 13:23:57;;;;;;;;;;;;;;;21.42;37.72;101302.31;5116464;27;2295;-59
2022/05/02 13:26:30;;;;;;;;;;;;;;;21.42;37.22;101287.91;5104606;27;3256;-59
2022/05/02 13:29:15;;;;;;;;;;;;;;;21.43;37.18;101289.41;5099092;27;2586;-59
2022/05/02 13:31:44;;;;;;;;;;;;;;;21.41;37.66;101286.41;5122518;27;2636;-59